Mauricio Knapp

Info Calendar Victories 2018 2017 2016 2015 2014 2013 2012 2011 2010 Team matesComments

Teams INFO: we are currently re-structuring the UCI-rank

Season Div. Team FC-rank UCI-rank Race days * Wins * Km *
2018 Sao Francisco Saude-Klabin 4158(0p) - 19 - 2578.9
2017 Sao Francisco Saude-Klabin 3760(1p) - 11 - 1434.3
2016 Sao Francisco - Saude-Powerade-SMR 3411(2p) - 16 - 2194.2
2015 Sao Francisco - Saude 1919(19p) - 11 - 1742.9
* from UCI races

2018 Results

# What Date Pos GC What Race FC-rank
points
2018-09-16 NE One-day race 16.09 9 128.0 km Cidade de Ubatuba -
2018-07-15 NE Stage race 10.07-15.07 3 Volta Cidade de Guarulhos -
2018-07-01 CN Maringá 01.07 7 153.0 km CN Brazil RR -
2018-06-28 CN Maringá 28.06 13 28.0 km CN Brazil ITT -
2018-06-10 NE One-day race 10.06 1 Copa Cidade Cancao -
2018-05-01 NE One-day race 01.05 36 Prova Ciclística 1º de Maio -
2018-04-21 NE One-day race 21.04 1 Inconfidencia Mineira-Ouro Branco -
2018-04-01 2.2 Stage race 23.03-01.04 52 Vuelta al Uruguay -
2018-04-01 2.2 Mountains 23.03-01.04 17 Vuelta al Uruguay -
2018-03-18 NE One-day race 18.03 21 GP Cidade de Curitiba -
2018-01-28 2.1 Stage race 21.01-28.01 136 Vuelta a San Juan -
2018-07-14 NE 05.stage 14.07 9 156 km Volta Cidade de Guarulhos -
2018-07-13 NE 04.stage 13.07 5 80 km Volta Cidade de Guarulhos -
2018-07-12 NE 03.stage 12.07 4 131 km Volta Cidade de Guarulhos -
2018-04-01 2.2 12.stage 01.04 91 52 145.2 km Vuelta al Uruguay -
2018-03-31 2.2 11.stage 31.03 81 49 165 km Vuelta al Uruguay -
2018-03-30 2.2 10.stage 30.03 40 50 106.7 km Vuelta al Uruguay -
2018-03-30 2.2 09.stage 30.03 22 49 22.8 km Vuelta al Uruguay -
2018-03-29 2.2 08.stage 29.03 88 55 113.1 km Vuelta al Uruguay -
2018-03-28 2.2 07.stage 28.03 74 53 199.9 km Vuelta al Uruguay -
2018-03-27 2.2 06.stage 27.03 82 53 164.1 km Vuelta al Uruguay -
2018-03-26 2.2 05.stage 26.03 87 55 165.1 km Vuelta al Uruguay -
2018-03-25 2.2 04.stage 25.03 55 57 188.5 km Vuelta al Uruguay -
2018-03-24 2.2 03.stage 24.03 63 58 122.2 km Vuelta al Uruguay -
2018-03-24 2.2 02.stage (TTT) 24.03 5 71 25.3 km Vuelta al Uruguay -
2018-03-23 2.2 01.stage 23.03 64 64 201.6 km Vuelta al Uruguay -
2018-01-28 2.1 07.stage 28.01 138 136 141.3 km Vuelta a San Juan -
2018-01-27 2.1 06.stage 27.01 114 130 152.6 km Vuelta a San Juan -
2018-01-26 2.1 05.stage 26.01 124 123 169.5 km Vuelta a San Juan -
2018-01-24 2.1 04.stage 24.01 94 109 182.8 km Vuelta a San Juan -
2018-01-23 2.1 03.stage 23.01 153 102 14.4 km Vuelta a San Juan -
2018-01-22 2.1 02.stage 22.01 75 75 149.9 km Vuelta a San Juan -
2018-01-21 2.1 01.stage 21.01 123 122 148.9 km Vuelta a San Juan -

Info

Name Mauricio Knapp

Nation Brazil

Born27 year, Mar 21st 1991

Mountain jerseys

Giro Interior Sao Paulo (2013)